createdAt,value
2018-05-29T00:00:40.318Z,0.00
2018-05-29T00:01:40.269Z,0.00
2018-05-29T00:02:40.214Z,0.00
2018-05-29T00:03:40.156Z,0.00
2018-05-29T00:04:40.092Z,0.00
2018-05-29T00:05:40.037Z,0.00
2018-05-29T00:06:39.990Z,0.00
2018-05-29T00:07:39.935Z,0.00
2018-05-29T00:08:39.871Z,0.00
2018-05-29T00:09:39.825Z,0.00
2018-05-29T00:10:39.764Z,0.00
2018-05-29T00:11:39.704Z,0.00
2018-05-29T00:12:39.647Z,0.00
2018-05-29T00:13:39.597Z,0.00
2018-05-29T00:14:39.539Z,0.00
2018-05-29T00:15:39.481Z,0.00
2018-05-29T00:16:39.426Z,0.00
2018-05-29T00:17:39.369Z,0.00
2018-05-29T00:18:39.311Z,0.00
2018-05-29T00:19:39.256Z,0.00
2018-05-29T00:20:39.205Z,0.00
2018-05-29T00:21:39.150Z,0.00
2018-05-29T00:22:39.098Z,0.00
2018-05-29T00:23:39.034Z,0.00
2018-05-29T00:24:38.976Z,0.00
2018-05-29T00:25:38.926Z,0.00
2018-05-29T00:26:38.866Z,0.00
2018-05-29T00:27:38.815Z,0.00
2018-05-29T00:28:38.750Z,0.00
2018-05-29T00:29:38.701Z,0.00
2018-05-29T00:30:38.646Z,0.00
2018-05-29T00:31:38.583Z,0.00
2018-05-29T00:32:38.531Z,0.00
2018-05-29T00:33:38.480Z,0.00
2018-05-29T00:34:38.420Z,0.00
2018-05-29T00:35:38.365Z,0.00
2018-05-29T00:36:38.303Z,0.00
2018-05-29T00:37:38.248Z,0.00
2018-05-29T00:38:38.194Z,0.00
2018-05-29T00:39:38.136Z,0.00
2018-05-29T00:40:38.081Z,0.00
2018-05-29T00:41:38.021Z,0.00
2018-05-29T00:42:37.973Z,0.00
2018-05-29T00:43:37.913Z,0.00
2018-05-29T00:44:37.857Z,0.00
2018-05-29T00:45:37.799Z,0.00
2018-05-29T00:46:37.747Z,0.00
2018-05-29T00:47:37.684Z,0.00
2018-05-29T00:48:37.630Z,0.00
2018-05-29T00:49:37.576Z,0.00
2018-05-29T00:50:37.517Z,0.00
2018-05-29T00:51:37.469Z,0.00
2018-05-29T00:52:37.406Z,0.00
2018-05-29T00:53:37.352Z,0.00
2018-05-29T00:54:37.296Z,0.00
2018-05-29T00:55:37.240Z,0.00
2018-05-29T00:56:37.182Z,0.00
2018-05-29T00:57:37.129Z,0.00
2018-05-29T00:58:37.070Z,0.00
2018-05-29T00:59:37.011Z,0.00
2018-05-29T01:00:36.956Z,0.00
2018-05-29T01:01:36.898Z,0.00
2018-05-29T01:02:36.842Z,0.00
2018-05-29T01:03:36.788Z,0.00
2018-05-29T01:04:36.737Z,0.00
2018-05-29T01:05:36.677Z,0.00
2018-05-29T01:06:36.623Z,0.00
2018-05-29T01:07:36.563Z,0.00
2018-05-29T01:08:36.504Z,0.00
2018-05-29T01:09:36.448Z,0.00
2018-05-29T01:10:36.394Z,0.00
2018-05-29T01:11:36.337Z,0.00
2018-05-29T01:12:36.290Z,0.00
2018-05-29T01:13:36.221Z,0.00
2018-05-29T01:14:36.166Z,0.00
2018-05-29T01:15:36.110Z,0.00
2018-05-29T01:16:36.060Z,0.00
2018-05-29T01:17:35.998Z,0.00
2018-05-29T01:18:35.941Z,0.00
2018-05-29T01:19:35.889Z,0.00
2018-05-29T01:20:35.827Z,0.00
2018-05-29T01:21:35.767Z,0.00
2018-05-29T01:22:35.715Z,0.00
2018-05-29T01:23:35.653Z,0.00
2018-05-29T01:24:35.603Z,0.00
2018-05-29T01:25:35.547Z,0.00
2018-05-29T01:26:35.489Z,0.00
2018-05-29T01:27:35.432Z,0.00
2018-05-29T01:28:35.379Z,0.00
2018-05-29T01:29:35.321Z,0.00
2018-05-29T01:30:35.265Z,0.00
2018-05-29T01:31:35.208Z,0.00
2018-05-29T01:32:35.152Z,0.00
2018-05-29T01:33:35.093Z,0.00
2018-05-29T01:34:35.039Z,0.00
2018-05-29T01:35:34.982Z,0.00
2018-05-29T01:36:34.924Z,0.00
2018-05-29T01:37:34.869Z,0.00
2018-05-29T01:38:34.812Z,0.00
2018-05-29T01:39:34.757Z,0.00
2018-05-29T01:40:34.702Z,0.00
2018-05-29T01:41:34.638Z,0.00
2018-05-29T01:42:34.583Z,0.00
2018-05-29T01:43:34.528Z,0.00
2018-05-29T01:44:34.468Z,0.00
2018-05-29T01:45:34.415Z,0.00
2018-05-29T01:46:34.355Z,0.00
2018-05-29T01:47:34.303Z,0.00
2018-05-29T01:48:34.244Z,0.00
2018-05-29T01:49:34.189Z,0.00
2018-05-29T01:50:34.130Z,0.00
2018-05-29T01:51:34.075Z,0.00
2018-05-29T01:52:34.014Z,0.00
2018-05-29T01:53:33.960Z,0.00
2018-05-29T01:54:33.901Z,0.00
2018-05-29T01:55:33.841Z,0.00
2018-05-29T01:56:33.791Z,0.00
2018-05-29T01:57:33.734Z,0.00
2018-05-29T01:58:33.674Z,0.00
2018-05-29T01:59:33.618Z,0.00
2018-05-29T02:00:33.562Z,0.00
2018-05-29T02:01:33.507Z,0.00
2018-05-29T02:02:33.452Z,0.00
2018-05-29T02:03:33.395Z,0.00
2018-05-29T02:04:33.375Z,0.00
2018-05-29T02:05:33.281Z,0.00
2018-05-29T02:06:33.222Z,0.00
2018-05-29T02:07:33.167Z,0.00
2018-05-29T02:08:33.107Z,0.00
2018-05-29T02:09:33.056Z,0.00
2018-05-29T02:10:32.992Z,0.00
2018-05-29T02:11:32.942Z,0.00
2018-05-29T02:12:32.880Z,4.00
2018-05-29T02:13:32.825Z,4.00
2018-05-29T02:14:32.767Z,4.00
2018-05-29T02:15:32.715Z,4.00
2018-05-29T02:16:32.650Z,0.00
2018-05-29T02:17:32.595Z,4.00
2018-05-29T02:18:32.542Z,4.00
2018-05-29T02:19:32.476Z,4.00
2018-05-29T02:20:32.427Z,8.00
2018-05-29T02:21:32.371Z,4.00
2018-05-29T02:22:32.311Z,8.00
2018-05-29T02:23:32.259Z,8.00
2018-05-29T02:24:32.194Z,8.00
2018-05-29T02:25:32.138Z,8.00
2018-05-29T02:26:32.082Z,8.00
2018-05-29T02:27:32.020Z,12.00
2018-05-29T02:28:31.973Z,12.00
2018-05-29T02:29:31.919Z,16.00
2018-05-29T02:30:31.856Z,16.00
2018-05-29T02:31:31.795Z,20.00
2018-05-29T02:32:31.742Z,20.00
2018-05-29T02:33:31.689Z,24.00
2018-05-29T02:34:31.626Z,24.00
2018-05-29T02:35:31.569Z,32.00
2018-05-29T02:36:31.527Z,32.00
2018-05-29T02:37:31.450Z,40.00
2018-05-29T02:38:31.397Z,44.00
2018-05-29T02:39:31.336Z,48.00
2018-05-29T02:40:31.288Z,52.00
2018-05-29T02:41:31.225Z,60.00
2018-05-29T02:42:31.173Z,68.00
2018-05-29T02:43:31.111Z,76.00
2018-05-29T02:44:31.056Z,84.00
2018-05-29T02:45:30.997Z,92.00
2018-05-29T02:46:30.943Z,104.00
2018-05-29T02:47:30.882Z,116.00
2018-05-29T02:48:30.829Z,124.00
2018-05-29T02:49:30.767Z,136.00
2018-05-29T02:50:30.713Z,148.00
2018-05-29T02:51:30.653Z,164.00
2018-05-29T02:52:30.597Z,176.00
2018-05-29T02:53:30.537Z,196.00
2018-05-29T02:54:30.483Z,208.00
2018-05-29T02:55:30.421Z,224.00
2018-05-29T02:56:30.373Z,240.00
2018-05-29T02:57:30.306Z,264.00
2018-05-29T02:58:30.256Z,276.00
2018-05-29T02:59:30.193Z,300.00
2018-05-29T03:00:30.139Z,320.00
2018-05-29T03:01:30.079Z,340.00
2018-05-29T03:02:30.025Z,360.00
2018-05-29T03:03:29.964Z,380.00
2018-05-29T03:04:29.912Z,408.00
2018-05-29T03:05:29.851Z,428.00
2018-05-29T03:06:29.794Z,452.00
2018-05-29T03:07:29.739Z,480.00
2018-05-29T03:08:29.681Z,500.00
2018-05-29T03:09:29.619Z,528.00
2018-05-29T03:10:29.566Z,556.00
2018-05-29T03:11:29.504Z,580.00
2018-05-29T03:12:29.450Z,608.00
2018-05-29T03:13:29.394Z,636.00
2018-05-29T03:14:29.336Z,660.00
2018-05-29T03:15:29.279Z,692.00
2018-05-29T03:16:29.220Z,716.00
2018-05-29T03:17:29.160Z,748.00
2018-05-29T03:18:29.106Z,776.00
2018-05-29T03:19:29.046Z,804.00
2018-05-29T03:20:28.989Z,836.00
2018-05-29T03:21:28.933Z,864.00
2018-05-29T03:22:28.875Z,892.00
2018-05-29T03:23:28.816Z,924.00
2018-05-29T03:24:28.761Z,956.00
2018-05-29T03:25:28.705Z,984.00
2018-05-29T03:26:28.663Z,1012.00
2018-05-29T03:27:28.589Z,1040.00
2018-05-29T03:28:28.527Z,1072.00
2018-05-29T03:29:28.470Z,1100.00
2018-05-29T03:30:28.414Z,1132.00
2018-05-29T03:31:28.375Z,1160.00
2018-05-29T03:32:28.302Z,1192.00
2018-05-29T03:33:28.243Z,1220.00
2018-05-29T03:34:28.215Z,1248.00
2018-05-29T03:35:28.128Z,1276.00
2018-05-29T03:36:28.071Z,1304.00
2018-05-29T03:37:28.014Z,1332.00
2018-05-29T03:38:27.955Z,1360.00
2018-05-29T03:39:27.900Z,1392.00
2018-05-29T03:40:27.837Z,1420.00
2018-05-29T03:41:27.782Z,1452.00
2018-05-29T03:42:27.726Z,1480.00
2018-05-29T03:43:27.670Z,1516.00
2018-05-29T03:44:27.605Z,1544.00
2018-05-29T03:45:27.551Z,1576.00
2018-05-29T03:46:27.495Z,1604.00
2018-05-29T03:47:27.438Z,1640.00
2018-05-29T03:48:27.376Z,1672.00
2018-05-29T03:49:27.319Z,1700.00
2018-05-29T03:50:27.262Z,1732.00
2018-05-29T03:51:27.276Z,1756.00
2018-05-29T03:52:27.145Z,1788.00
2018-05-29T03:53:27.090Z,1816.00
2018-05-29T03:54:27.031Z,1844.00
2018-05-29T03:55:26.974Z,1876.00
2018-05-29T03:56:26.919Z,1904.00
2018-05-29T03:57:26.864Z,1932.00
2018-05-29T03:58:26.804Z,1964.00
2018-05-29T03:59:26.749Z,1992.00
2018-05-29T04:00:26.692Z,2020.00
2018-05-29T04:01:26.628Z,2052.00
2018-05-29T04:02:26.571Z,2080.00
2018-05-29T04:03:26.515Z,2108.00
2018-05-29T04:04:26.458Z,2136.00
2018-05-29T04:05:26.400Z,2164.00
2018-05-29T04:06:26.340Z,2192.00
2018-05-29T04:07:26.287Z,2220.00
2018-05-29T04:08:26.229Z,2248.00
2018-05-29T04:09:26.220Z,2276.00
2018-05-29T04:10:26.114Z,2296.00
2018-05-29T04:11:26.055Z,2324.00
2018-05-29T04:12:25.997Z,2348.00
2018-05-29T04:13:25.938Z,2376.00
2018-05-29T04:14:25.882Z,2396.00
2018-05-29T04:15:25.822Z,2428.00
2018-05-29T04:16:25.768Z,2452.00
2018-05-29T04:17:25.710Z,2480.00
2018-05-29T04:18:25.654Z,2512.00
2018-05-29T04:19:25.592Z,2536.00
2018-05-29T04:20:25.534Z,2568.00
2018-05-29T04:21:25.478Z,2592.00
2018-05-29T04:22:25.427Z,2620.00
2018-05-29T04:23:25.363Z,2656.00
2018-05-29T04:24:25.302Z,2680.00
2018-05-29T04:25:25.252Z,2708.00
2018-05-29T04:26:25.190Z,2740.00
2018-05-29T04:27:25.131Z,2768.00
2018-05-29T04:28:25.080Z,2800.00
2018-05-29T04:29:25.020Z,2828.00
2018-05-29T04:30:24.961Z,2860.00
2018-05-29T04:31:24.904Z,2888.00
2018-05-29T04:32:24.845Z,2920.00
2018-05-29T04:33:24.788Z,2948.00
2018-05-29T04:34:24.733Z,2980.00
2018-05-29T04:35:24.676Z,3004.00
2018-05-29T04:36:24.617Z,3032.00
2018-05-29T04:37:24.558Z,3060.00
2018-05-29T04:38:24.500Z,3084.00
2018-05-29T04:39:24.452Z,3112.00
2018-05-29T04:40:24.386Z,3132.00
2018-05-29T04:41:24.330Z,3148.00
2018-05-29T04:42:24.274Z,3176.00
2018-05-29T04:43:24.211Z,3208.00
2018-05-29T04:44:24.154Z,3236.00
2018-05-29T04:45:24.103Z,3260.00
2018-05-29T04:46:24.037Z,3292.00
2018-05-29T04:47:23.984Z,3320.00
2018-05-29T04:48:23.929Z,3352.00
2018-05-29T04:49:23.871Z,3376.00
2018-05-29T04:50:23.810Z,3404.00
2018-05-29T04:51:23.754Z,3432.00
2018-05-29T04:52:23.700Z,3452.00
2018-05-29T04:53:23.644Z,3480.00
2018-05-29T04:54:23.599Z,3512.00
2018-05-29T04:55:23.526Z,3552.00
2018-05-29T04:56:23.473Z,3600.00
2018-05-29T04:57:23.415Z,3640.00
2018-05-29T04:58:23.353Z,3736.00
2018-05-29T04:59:23.299Z,4172.00
2018-05-29T05:00:23.257Z,4536.00
2018-05-29T05:01:23.193Z,4760.00
2018-05-29T05:02:23.132Z,4988.00
2018-05-29T05:03:23.073Z,4912.00
2018-05-29T05:04:23.013Z,4964.00
2018-05-29T05:05:22.951Z,5620.00
2018-05-29T05:06:22.894Z,6520.00
2018-05-29T05:07:22.840Z,6808.00
2018-05-29T05:08:22.789Z,6716.00
2018-05-29T05:09:22.724Z,6132.00
2018-05-29T05:10:22.668Z,5612.00
2018-05-29T05:11:22.610Z,5320.00
2018-05-29T05:12:22.554Z,4864.00
2018-05-29T05:13:22.499Z,4268.00
2018-05-29T05:14:22.442Z,4132.00
2018-05-29T05:15:22.382Z,4164.00
2018-05-29T05:16:22.330Z,4712.00
2018-05-29T05:17:22.266Z,5416.00
2018-05-29T05:18:22.216Z,5400.00
2018-05-29T05:19:22.157Z,4948.00
2018-05-29T05:20:22.102Z,4516.00
2018-05-29T05:21:22.047Z,4440.00
2018-05-29T05:22:21.993Z,4916.00
2018-05-29T05:23:21.935Z,5544.00
2018-05-29T05:24:21.878Z,5860.00
2018-05-29T05:25:21.823Z,6240.00
2018-05-29T05:26:21.765Z,5888.00
2018-05-29T05:27:21.710Z,4568.00
2018-05-29T05:28:21.649Z,4228.00
2018-05-29T05:29:21.599Z,4240.00
2018-05-29T05:30:21.536Z,4248.00
2018-05-29T05:31:21.479Z,4260.00
2018-05-29T05:32:21.428Z,4280.00
2018-05-29T05:33:21.373Z,4292.00
2018-05-29T05:34:21.317Z,4308.00
2018-05-29T05:35:21.265Z,4320.00
2018-05-29T05:36:21.202Z,4340.00
2018-05-29T05:37:21.149Z,4364.00
2018-05-29T05:38:21.085Z,4380.00
2018-05-29T05:39:21.035Z,4396.00
2018-05-29T05:40:20.978Z,4412.00
2018-05-29T05:41:20.924Z,4440.00
2018-05-29T05:42:20.864Z,4456.00
2018-05-29T05:43:20.819Z,4476.00
2018-05-29T05:44:20.797Z,4488.00
2018-05-29T05:45:20.695Z,4508.00
2018-05-29T05:46:20.641Z,4520.00
2018-05-29T05:47:20.587Z,4540.00
2018-05-29T05:48:20.531Z,4548.00
2018-05-29T05:49:20.464Z,4568.00
2018-05-29T05:50:20.414Z,4580.00
2018-05-29T05:51:20.358Z,4596.00
2018-05-29T05:52:20.300Z,4612.00
2018-05-29T05:53:20.265Z,4624.00
2018-05-29T05:54:20.193Z,4640.00
2018-05-29T05:55:20.139Z,4656.00
2018-05-29T05:56:20.072Z,4672.00
2018-05-29T05:57:20.022Z,4684.00
2018-05-29T05:58:19.964Z,4696.00
2018-05-29T05:59:19.909Z,4704.00
2018-05-29T06:00:19.855Z,4724.00
2018-05-29T06:01:19.798Z,4740.00
2018-05-29T06:02:19.737Z,4752.00
2018-05-29T06:03:19.682Z,4764.00
2018-05-29T06:04:19.626Z,4780.00
2018-05-29T06:05:19.571Z,4796.00
2018-05-29T06:06:19.515Z,4808.00
2018-05-29T06:07:19.456Z,4816.00
2018-05-29T06:08:19.399Z,4836.00
2018-05-29T06:09:19.340Z,4860.00
2018-05-29T06:10:19.291Z,4868.00
2018-05-29T06:11:19.235Z,4876.00
2018-05-29T06:12:19.178Z,4888.00
2018-05-29T06:13:19.120Z,4908.00
2018-05-29T06:14:19.098Z,4912.00
2018-05-29T06:15:19.008Z,4928.00
2018-05-29T06:16:18.998Z,4944.00
2018-05-29T06:17:18.896Z,4952.00
2018-05-29T06:18:18.841Z,4952.00
2018-05-29T06:19:18.784Z,4976.00
2018-05-29T06:20:18.725Z,4984.00
2018-05-29T06:21:18.680Z,4992.00
2018-05-29T06:22:18.617Z,5004.00
2018-05-29T06:23:18.560Z,5012.00
2018-05-29T06:24:18.581Z,5020.00
2018-05-29T06:25:18.450Z,5036.00
2018-05-29T06:26:18.404Z,5048.00
2018-05-29T06:27:18.336Z,5060.00
2018-05-29T06:28:18.275Z,5060.00
2018-05-29T06:29:18.223Z,5072.00
2018-05-29T06:30:18.169Z,5076.00
2018-05-29T06:31:18.113Z,5076.00
2018-05-29T06:32:18.063Z,5084.00
2018-05-29T06:33:18.004Z,5092.00
2018-05-29T06:34:17.946Z,5096.00
2018-05-29T06:35:17.890Z,5112.00
2018-05-29T06:36:17.838Z,5112.00
2018-05-29T06:37:17.789Z,5120.00
2018-05-29T06:38:17.779Z,5124.00
2018-05-29T06:39:17.671Z,5132.00
2018-05-29T06:40:17.621Z,5144.00
2018-05-29T06:41:17.557Z,5140.00
2018-05-29T06:42:17.505Z,5148.00
2018-05-29T06:43:17.450Z,5152.00
2018-05-29T06:44:17.397Z,5168.00
2018-05-29T06:45:17.342Z,5172.00
2018-05-29T06:46:17.282Z,5184.00
2018-05-29T06:47:17.225Z,5176.00
2018-05-29T06:48:17.173Z,5188.00
2018-05-29T06:49:17.119Z,5188.00
2018-05-29T06:50:17.070Z,5188.00
2018-05-29T06:51:17.009Z,5196.00
2018-05-29T06:52:16.948Z,5196.00
2018-05-29T06:53:16.893Z,5208.00
2018-05-29T06:54:16.839Z,5212.00
2018-05-29T06:55:16.781Z,5212.00
2018-05-29T06:56:16.731Z,5216.00
2018-05-29T06:57:16.676Z,5220.00
2018-05-29T06:58:16.623Z,5228.00
2018-05-29T06:59:16.564Z,5236.00
2018-05-29T07:00:16.515Z,5240.00
2018-05-29T07:01:16.458Z,5256.00
2018-05-29T07:02:16.400Z,5256.00
2018-05-29T07:03:16.389Z,5276.00
2018-05-29T07:04:16.296Z,5280.00
2018-05-29T07:05:16.237Z,5284.00
2018-05-29T07:06:16.187Z,5288.00
2018-05-29T07:07:16.119Z,5288.00
2018-05-29T07:08:16.070Z,5268.00
2018-05-29T07:09:16.017Z,5284.00
2018-05-29T07:10:15.960Z,5272.00
2018-05-29T07:11:15.903Z,5268.00
2018-05-29T07:12:15.845Z,5260.00
2018-05-29T07:13:15.790Z,5256.00
2018-05-29T07:14:15.738Z,5240.00
2018-05-29T07:15:15.685Z,5228.00
2018-05-29T07:16:15.634Z,5220.00
2018-05-29T07:17:15.578Z,5228.00
2018-05-29T07:18:15.519Z,5224.00
2018-05-29T07:19:15.462Z,5224.00
2018-05-29T07:20:15.413Z,5204.00
2018-05-29T07:21:15.351Z,5208.00
2018-05-29T07:22:15.300Z,5212.00
2018-05-29T07:23:15.244Z,5208.00
2018-05-29T07:24:15.189Z,5188.00
2018-05-29T07:25:15.138Z,5184.00
2018-05-29T07:26:15.082Z,5196.00
2018-05-29T07:27:15.037Z,5164.00
2018-05-29T07:28:14.973Z,5176.00
2018-05-29T07:29:14.918Z,5156.00
2018-05-29T07:30:14.864Z,5164.00
2018-05-29T07:31:14.807Z,5156.00
2018-05-29T07:32:14.753Z,5152.00
2018-05-29T07:33:14.697Z,5144.00
2018-05-29T07:34:14.647Z,5120.00
2018-05-29T07:35:14.595Z,5140.00
2018-05-29T07:36:14.535Z,5136.00
2018-05-29T07:37:14.483Z,5140.00
2018-05-29T07:38:14.424Z,5136.00
2018-05-29T07:39:14.370Z,5140.00
2018-05-29T07:40:14.322Z,5132.00
2018-05-29T07:41:14.267Z,5136.00
2018-05-29T07:42:14.214Z,5140.00
2018-05-29T07:43:14.152Z,5128.00
2018-05-29T07:44:14.098Z,5128.00
2018-05-29T07:45:14.084Z,5112.00
2018-05-29T07:46:13.988Z,5124.00
2018-05-29T07:47:13.939Z,5120.00
2018-05-29T07:48:13.884Z,5136.00
2018-05-29T07:49:13.828Z,5124.00
2018-05-29T07:50:13.773Z,5132.00
2018-05-29T07:51:13.717Z,5108.00
2018-05-29T07:52:13.665Z,5100.00
2018-05-29T07:53:13.610Z,5108.00
2018-05-29T07:54:13.557Z,5088.00
2018-05-29T07:55:13.504Z,5092.00
2018-05-29T07:56:13.451Z,5092.00
2018-05-29T07:57:13.391Z,5084.00
2018-05-29T07:58:13.340Z,5096.00
2018-05-29T07:59:13.284Z,5072.00
2018-05-29T08:00:13.232Z,5068.00
2018-05-29T08:01:13.178Z,5068.00
2018-05-29T08:02:13.126Z,5060.00
2018-05-29T08:03:13.070Z,5048.00
2018-05-29T08:04:13.015Z,5048.00
2018-05-29T08:05:12.959Z,5036.00
2018-05-29T08:06:12.908Z,5040.00
2018-05-29T08:07:12.853Z,5036.00
2018-05-29T08:08:12.797Z,5044.00
2018-05-29T08:09:12.743Z,5044.00
2018-05-29T08:10:12.686Z,5036.00
2018-05-29T08:11:12.636Z,5028.00
2018-05-29T08:12:12.586Z,5032.00
2018-05-29T08:13:12.530Z,5024.00
2018-05-29T08:14:12.477Z,5024.00
2018-05-29T08:15:12.417Z,5012.00
2018-05-29T08:16:12.368Z,5016.00
2018-05-29T08:17:12.310Z,5004.00
2018-05-29T08:18:12.256Z,5000.00
2018-05-29T08:19:12.202Z,5004.00
2018-05-29T08:20:12.150Z,4996.00
2018-05-29T08:21:12.095Z,4996.00
2018-05-29T08:22:12.041Z,4988.00
2018-05-29T08:23:11.984Z,4984.00
2018-05-29T08:24:11.936Z,5004.00
2018-05-29T08:25:11.881Z,5008.00
2018-05-29T08:26:11.827Z,4992.00
2018-05-29T08:27:11.773Z,4992.00
2018-05-29T08:28:11.717Z,4996.00
2018-05-29T08:29:11.661Z,4996.00
2018-05-29T08:30:11.610Z,5000.00
2018-05-29T08:31:11.554Z,4988.00
2018-05-29T08:32:11.504Z,4984.00
2018-05-29T08:33:11.449Z,4980.00
2018-05-29T08:34:11.396Z,4984.00
2018-05-29T08:35:11.339Z,4976.00
2018-05-29T08:36:11.284Z,4984.00
2018-05-29T08:37:11.230Z,4984.00
2018-05-29T08:38:11.178Z,4968.00
2018-05-29T08:39:11.125Z,4956.00
2018-05-29T08:40:11.071Z,4964.00
2018-05-29T08:41:11.014Z,4960.00
2018-05-29T08:42:10.973Z,4956.00
2018-05-29T08:43:10.907Z,4968.00
2018-05-29T08:44:10.854Z,4968.00
2018-05-29T08:45:10.802Z,4968.00
2018-05-29T08:46:10.749Z,4956.00
2018-05-29T08:47:10.694Z,4972.00
2018-05-29T08:48:10.638Z,4972.00
2018-05-29T08:49:10.585Z,4968.00
2018-05-29T08:50:10.531Z,4972.00
2018-05-29T08:51:10.475Z,4968.00
2018-05-29T08:52:10.440Z,4964.00
2018-05-29T08:53:10.370Z,4960.00
2018-05-29T08:54:10.313Z,4964.00
2018-05-29T08:55:10.259Z,4952.00
2018-05-29T08:56:10.213Z,4964.00
2018-05-29T08:57:10.157Z,4972.00
2018-05-29T08:58:10.101Z,4968.00
2018-05-29T08:59:10.046Z,4960.00
2018-05-29T09:00:09.994Z,4968.00
2018-05-29T09:01:09.937Z,4960.00
2018-05-29T09:02:09.883Z,4956.00
2018-05-29T09:03:09.842Z,4956.00
2018-05-29T09:04:09.789Z,4952.00
2018-05-29T09:05:09.727Z,4952.00
2018-05-29T09:06:09.673Z,4964.00
2018-05-29T09:07:09.622Z,4980.00
2018-05-29T09:08:09.566Z,4980.00
2018-05-29T09:09:09.508Z,4996.00
2018-05-29T09:10:09.458Z,5012.00
2018-05-29T09:11:09.403Z,5044.00
2018-05-29T09:12:09.348Z,5064.00
2018-05-29T09:13:09.294Z,5084.00
2018-05-29T09:14:09.242Z,5104.00
2018-05-29T09:15:09.187Z,5132.00
2018-05-29T09:16:09.135Z,5148.00
2018-05-29T09:17:09.082Z,5156.00
2018-05-29T09:18:09.026Z,5168.00
2018-05-29T09:19:08.976Z,5180.00
2018-05-29T09:20:08.919Z,5184.00
2018-05-29T09:21:08.863Z,5212.00
2018-05-29T09:22:08.808Z,5248.00
2018-05-29T09:23:08.761Z,5256.00
2018-05-29T09:24:08.711Z,5276.00
2018-05-29T09:25:08.653Z,5276.00
2018-05-29T09:26:08.624Z,5280.00
2018-05-29T09:27:08.548Z,5264.00
2018-05-29T09:28:08.497Z,5272.00
2018-05-29T09:29:08.436Z,5288.00
2018-05-29T09:30:08.385Z,5284.00
2018-05-29T09:31:08.332Z,5280.00
2018-05-29T09:32:08.277Z,5312.00
2018-05-29T09:33:08.227Z,5316.00
2018-05-29T09:34:08.174Z,5304.00
2018-05-29T09:35:08.118Z,5292.00
2018-05-29T09:36:08.066Z,5296.00
2018-05-29T09:37:08.010Z,5316.00
2018-05-29T09:38:07.958Z,5372.00
2018-05-29T09:39:07.905Z,5412.00
2018-05-29T09:40:07.850Z,5456.00
2018-05-29T09:41:07.796Z,5500.00
2018-05-29T09:42:07.742Z,5488.00
2018-05-29T09:43:07.696Z,5448.00
2018-05-29T09:44:07.636Z,5424.00
2018-05-29T09:45:07.581Z,5408.00
2018-05-29T09:46:07.528Z,5384.00
2018-05-29T09:47:07.476Z,5432.00
2018-05-29T09:48:07.424Z,5528.00
2018-05-29T09:49:07.371Z,5596.00
2018-05-29T09:50:07.317Z,5640.00
2018-05-29T09:51:07.270Z,5608.00
2018-05-29T09:52:07.212Z,5560.00
2018-05-29T09:53:07.157Z,5504.00
2018-05-29T09:54:07.101Z,5480.00
2018-05-29T09:55:07.049Z,5524.00
2018-05-29T09:56:07.000Z,5548.00
2018-05-29T09:57:06.944Z,5600.00
2018-05-29T09:58:06.892Z,5644.00
2018-05-29T09:59:06.834Z,5644.00
2018-05-29T10:00:06.785Z,5664.00
2018-05-29T10:01:06.785Z,5692.00
2018-05-29T10:02:06.678Z,5652.00
2018-05-29T10:03:06.627Z,5636.00
2018-05-29T10:04:06.568Z,5648.00
2018-05-29T10:05:06.512Z,5752.00
2018-05-29T10:06:06.463Z,5740.00
2018-05-29T10:07:06.447Z,5776.00
2018-05-29T10:08:06.357Z,5800.00
2018-05-29T10:09:06.314Z,5836.00
2018-05-29T10:10:06.248Z,5824.00
2018-05-29T10:11:06.198Z,5780.00
2018-05-29T10:12:06.143Z,5752.00
2018-05-29T10:13:06.089Z,5800.00
2018-05-29T10:14:06.040Z,5892.00
2018-05-29T10:15:05.985Z,5956.00
2018-05-29T10:16:05.927Z,6048.00
2018-05-29T10:17:05.892Z,6120.00
2018-05-29T10:18:05.824Z,6160.00
2018-05-29T10:19:05.779Z,6180.00
2018-05-29T10:20:05.728Z,6236.00
2018-05-29T10:21:05.666Z,6208.00
2018-05-29T10:22:05.612Z,6176.00
2018-05-29T10:23:05.562Z,6216.00
2018-05-29T10:24:05.509Z,6260.00
2018-05-29T10:25:05.455Z,6312.00
2018-05-29T10:26:05.403Z,6220.00
2018-05-29T10:27:05.345Z,6252.00
2018-05-29T10:28:05.292Z,6276.00
2018-05-29T10:29:05.242Z,6276.00
2018-05-29T10:30:05.187Z,6312.00
2018-05-29T10:31:05.134Z,6276.00
2018-05-29T10:32:05.084Z,6236.00
2018-05-29T10:33:05.027Z,6296.00
2018-05-29T10:34:04.975Z,6348.00
2018-05-29T10:35:04.929Z,6420.00
2018-05-29T10:36:04.869Z,6404.00
2018-05-29T10:37:04.818Z,6400.00
2018-05-29T10:38:04.765Z,6368.00
2018-05-29T10:39:04.710Z,6348.00
2018-05-29T10:40:04.659Z,6388.00
2018-05-29T10:41:04.606Z,6468.00
2018-05-29T10:42:04.558Z,6524.00
2018-05-29T10:43:04.507Z,6600.00
2018-05-29T10:44:04.452Z,6708.00
2018-05-29T10:45:04.394Z,6896.00
2018-05-29T10:46:04.395Z,7004.00
2018-05-29T10:47:04.287Z,7004.00
2018-05-29T10:48:04.234Z,7028.00
2018-05-29T10:49:04.183Z,7004.00
2018-05-29T10:50:04.132Z,6928.00
2018-05-29T10:51:04.075Z,6928.00
2018-05-29T10:52:04.029Z,7032.00
2018-05-29T10:53:03.989Z,7156.00
2018-05-29T10:54:03.927Z,7212.00
2018-05-29T10:55:03.886Z,7332.00
2018-05-29T10:56:03.821Z,7440.00
2018-05-29T10:57:03.756Z,7584.00
2018-05-29T10:58:03.706Z,7768.00
2018-05-29T10:59:03.658Z,7900.00
2018-05-29T11:00:03.599Z,7968.00
2018-05-29T11:01:03.552Z,8036.00
2018-05-29T11:02:03.496Z,8168.00
2018-05-29T11:03:03.440Z,8396.00
2018-05-29T11:04:03.392Z,8840.00
2018-05-29T11:05:03.340Z,9904.00
2018-05-29T11:06:03.295Z,38176.00
2018-05-29T11:07:03.234Z,97600.00
2018-05-29T11:08:03.191Z,104928.00
2018-05-29T11:09:03.132Z,94048.00
2018-05-29T11:10:03.085Z,93152.00
2018-05-29T11:11:03.029Z,98624.00
2018-05-29T11:12:02.980Z,99968.00
2018-05-29T11:13:02.932Z,92800.00
2018-05-29T11:14:02.880Z,85184.00
2018-05-29T11:15:02.845Z,88224.00
2018-05-29T11:16:02.780Z,97760.00
2018-05-29T11:17:02.728Z,110720.00
2018-05-29T11:18:02.682Z,119904.00
2018-05-29T11:19:02.636Z,119168.00
2018-05-29T11:20:02.614Z,116320.00
2018-05-29T11:21:02.531Z,117920.00
2018-05-29T11:22:02.484Z,121728.00
2018-05-29T11:23:02.439Z,119424.00
2018-05-29T11:24:02.392Z,109984.00
2018-05-29T11:25:02.339Z,94624.00
2018-05-29T11:26:02.293Z,86816.00
2018-05-29T11:27:02.248Z,91232.00
2018-05-29T11:28:02.202Z,104448.00
2018-05-29T11:29:02.158Z,114848.00
2018-05-29T11:30:02.113Z,115232.00
2018-05-29T11:31:02.060Z,108736.00
2018-05-29T11:32:02.019Z,96896.00
2018-05-29T11:33:01.973Z,89984.00
2018-05-29T11:34:01.926Z,88832.00
2018-05-29T11:35:01.878Z,95904.00
2018-05-29T11:36:01.844Z,106592.00
2018-05-29T11:37:01.795Z,110208.00
2018-05-29T11:38:01.753Z,98720.00
2018-05-29T11:39:01.713Z,86816.00
2018-05-29T11:40:01.663Z,83744.00
2018-05-29T11:41:01.624Z,92480.00
2018-05-29T11:42:01.584Z,106432.00
2018-05-29T11:43:01.535Z,116032.00
2018-05-29T11:44:01.498Z,114976.00
2018-05-29T11:45:01.455Z,109056.00
2018-05-29T11:46:01.420Z,104544.00
2018-05-29T11:47:01.367Z,105536.00
2018-05-29T11:48:01.328Z,105632.00
2018-05-29T11:49:01.286Z,111392.00
2018-05-29T11:50:01.247Z,120160.00
2018-05-29T11:51:01.213Z,122368.00
2018-05-29T11:52:01.163Z,116096.00
2018-05-29T11:53:01.124Z,106144.00
2018-05-29T11:54:01.080Z,101792.00
2018-05-29T11:55:01.078Z,102304.00
2018-05-29T11:56:01.004Z,111008.00
2018-05-29T11:57:00.964Z,117824.00
2018-05-29T11:58:00.933Z,113024.00
2018-05-29T11:59:00.891Z,103072.00
2018-05-29T12:00:00.841Z,99488.00
2018-05-29T12:01:00.803Z,98080.00
2018-05-29T12:02:00.763Z,100096.00
2018-05-29T12:03:00.725Z,108544.00
2018-05-29T12:04:00.693Z,117088.00
2018-05-29T12:05:00.652Z,122912.00
2018-05-29T12:06:00.604Z,124736.00
2018-05-29T12:07:00.574Z,123648.00
2018-05-29T12:08:00.531Z,121280.00
2018-05-29T12:09:00.497Z,117440.00
2018-05-29T12:10:00.459Z,115744.00
2018-05-29T12:11:00.416Z,118144.00
2018-05-29T12:12:00.380Z,119872.00
2018-05-29T12:13:00.344Z,116032.00
2018-05-29T12:14:00.296Z,108512.00
2018-05-29T12:15:00.259Z,103040.00
2018-05-29T12:16:00.225Z,100160.00
2018-05-29T12:17:00.301Z,102368.00